Terminal Aerodrome Forecast
Issued by NWS

Home | Current Version | Previous Version | Text Only | Print | Product List | Glossary On
Versions: 1 2 3 4 5 6 7 8 9 10 11 12 13
000
FTUS46 KOTX 260538
TAFMWH
TAF
KMWH 260538Z 2606/2706 24010KT P6SM FEW060
     FM261200 22005KT P6SM FEW050 SCT200
     FM261900 22011G18KT P6SM SCT100 BKN150
     FM270100 27015G23KT P6SM SCT050 SCT120 SCT150=

USA.gov is the U.S. government's official web portal to all federal, state and local government web resources and services.